Airfield :







YOU CAN JOIN US ON...

 
LOGIN :

Register | Disclaimer

   EN    FR    IT 

 









Legend :    VFR   Marginal VFR   IFR   Intensive IFR   Very Intensive IFR
Visi :
Ceiling :
>= 8 km
>= 3000ft
5 to 8 km
1000 to 3000 ft
1500m to 5 km
500 to 1000 ft
800 to 1500m
200 to 500 ft
< 800m
< 200 ft
Symbols :   Thunderstorms  Fog  Heavy snow  Heavy precipitations  Wind > 20 kt







- Airport Elevation : 534 ft
- IATA code : PQI


KPQI - Northern Maine Regional Arpt At Presque Isle

CURRENT METAR :
  • 181556Z AUTO 02006KT 10SM CLR M11/M18 A2994 RMK AO2 SLP186 T11061183 FZRANO

EXPIRED METARs :
  • 181456Z AUTO 00000KT 10SM CLR M14/M22 A2998 RMK AO2 SLP201 T11391217 58014 FZRANO
  • 181356Z AUTO 00000KT 10SM CLR M17/M23 A3001 RMK AO2 SLP209 T11721233 FZRANO

TAF KPQI
Valid from the 18 at 12:00 until the 19 at 12:00 UTC


181120Z 1812/1912 00000KT P6SM SCT130
FM181600 36005KT P6SM SCT120
FM181800 34004KT P6SM BKN025
FM182200 33007KT P6SM BKN130
FM190500 31009KT P6SM FEW150
KZBW FIR / North America



MET'MAP, your aeronautical weather chart ! - Copyright ORBIFLY December 2007 - Disclaimer

ORBIFLY MET'MAP TEAM :

Programming & Development : Alexandra Zaïnal
Concept & Development : Baudouin d'Aumeries
Co-Development & Prog : Marc-Olivier Méhu
Technical & hardware support : Manuel Goepfert

Contact : metmap@orbifly.com




SOURCES & CREDITS :

   NOAA